map of REY home
REY - Airport
Location
City:  Reyes, José Ballivián, El Beni, Bolivia
Name:Reyes Airport
ICAO:SLRY
IATA:REY

Details
Type:Airport (Aerodrome, Airfield)
Latitude:14°18'21"S (-14.305832)
Longitude:67°21'13"W (-67.353610)
Elevation:935 ft (285 m)
Variation:9.38°W (WMM2015 magnetic declination)
-0.19° annual change
Runways:1
Longest:4593 ft (1400 m)

Time
Time Zone:UTC-4
Local Time:

Weather
METAR:SLRY 161300Z 00000KT 9999 BKN013 OVC070 24/22 Q1010

Related Locations
Nearby:
Farthest:ZJYX: 12255 mi / 19723 km
Yongxing Island [Yongxing Island Airport], Xisha Islands (Woody Island, Paracel Islands), 46, CN

Find:

   beyond  
but within

Other Information
Maps:
NOTAMs:
Links:
Sources:

  
  • flag of Bolivia
  • flag of El Beni
  

Sectional Chart

Flight Planning
at skyvector.com

Satellite Image

Google Maps Satellite view

 

Copyright © 2004-2018 Karl L. Swartz. All rights reserved.
The Great Circle Mapper name and logo are trademarks of the Great Circle Mapper.
All other trademarks mentioned herein belong to their respective owners.
Please see credits for attibutions and further copyright information.

  Follow gcmap on Facebook Follow gcmap on Twitter Follow gcmap on Google+ GCmap on LinkedIn

hCard Microformat

Geo Microformat